Ravenden Springs, Arkansas
Current Conditions -  °F | °C
As of 12:15 PM on Tuesday 21 Oct 2014 (Local Time) from KARG Reporting Station
Clear Clear  
Wind Chill: 72°   Ceiling: Unl
Heat Index: 72°   Visibility: 9mi
Dew Point: 46°   Wind: 3mph
Humidity: 41%   Direction: 290°WNW
Pressure: 30.12"   Gusts: NA
Location:  36.32°N, 91.22°W
Report Text: KARG 211715Z AUTO 29003KT 9SM CLR 22/08 A3012 RMK AO1
Loading
Personal Weather Stations






























Interactive Weather Map
Tropical Storm Tracking
New forecast layout! Learn more

10-Day Weather Forecast

Advertisements
Track Severe Weather on mobile